sensor_id;sensor_type;location;lat;lon;timestamp;P1;durP1;ratioP1;P2;durP2;ratioP2
595;SDS011;19946;49.306;11.350;2024-01-15T00:02:44;0.57;;;0.57;;
595;SDS011;19946;49.306;11.350;2024-01-15T00:05:45;0.50;;;0.50;;
595;SDS011;19946;49.306;11.350;2024-01-15T00:08:45;0.60;;;0.60;;
595;SDS011;19946;49.306;11.350;2024-01-15T00:11:47;0.60;;;0.60;;
595;SDS011;19946;49.306;11.350;2024-01-15T00:14:47;0.70;;;0.70;;
595;SDS011;19946;49.306;11.350;2024-01-15T00:17:47;0.57;;;0.57;;
595;SDS011;19946;49.306;11.350;2024-01-15T00:20:48;0.50;;;0.50;;
595;SDS011;19946;49.306;11.350;2024-01-15T00:23:48;0.60;;;0.60;;
595;SDS011;19946;49.306;11.350;2024-01-15T00:26:48;0.50;;;0.50;;
595;SDS011;19946;49.306;11.350;2024-01-15T00:29:49;0.50;;;0.50;;
595;SDS011;19946;49.306;11.350;2024-01-15T00:32:50;0.60;;;0.60;;
595;SDS011;19946;49.306;11.350;2024-01-15T00:35:50;0.60;;;0.60;;
595;SDS011;19946;49.306;11.350;2024-01-15T00:38:51;0.50;;;0.50;;
595;SDS011;19946;49.306;11.350;2024-01-15T00:41:52;0.67;;;0.67;;
595;SDS011;19946;49.306;11.350;2024-01-15T00:44:52;0.63;;;0.63;;
595;SDS011;19946;49.306;11.350;2024-01-15T00:47:54;0.50;;;0.50;;
595;SDS011;19946;49.306;11.350;2024-01-15T00:50:56;0.60;;;0.60;;
595;SDS011;19946;49.306;11.350;2024-01-15T00:53:56;0.60;;;0.60;;
595;SDS011;19946;49.306;11.350;2024-01-15T00:56:57;0.57;;;0.57;;
595;SDS011;19946;49.306;11.350;2024-01-15T00:59:57;0.50;;;0.50;;
595;SDS011;19946;49.306;11.350;2024-01-15T01:02:57;0.70;;;0.70;;
595;SDS011;19946;49.306;11.350;2024-01-15T01:05:58;0.53;;;0.53;;
595;SDS011;19946;49.306;11.350;2024-01-15T01:08:58;0.50;;;0.50;;
595;SDS011;19946;49.306;11.350;2024-01-15T01:11:58;0.60;;;0.60;;
595;SDS011;19946;49.306;11.350;2024-01-15T01:14:59;0.50;;;0.50;;
595;SDS011;19946;49.306;11.350;2024-01-15T01:17:59;0.40;;;0.40;;
595;SDS011;19946;49.306;11.350;2024-01-15T01:20:59;0.60;;;0.60;;
595;SDS011;19946;49.306;11.350;2024-01-15T01:24:00;0.60;;;0.60;;
595;SDS011;19946;49.306;11.350;2024-01-15T01:27:00;0.57;;;0.57;;
595;SDS011;19946;49.306;11.350;2024-01-15T01:30:00;0.60;;;0.60;;
595;SDS011;19946;49.306;11.350;2024-01-15T01:33:01;0.60;;;0.60;;
595;SDS011;19946;49.306;11.350;2024-01-15T01:36:06;0.60;;;0.60;;
595;SDS011;19946;49.306;11.350;2024-01-15T01:39:07;0.70;;;0.70;;
595;SDS011;19946;49.306;11.350;2024-01-15T01:42:07;0.60;;;0.60;;
595;SDS011;19946;49.306;11.350;2024-01-15T01:45:08;0.70;;;0.70;;
595;SDS011;19946;49.306;11.350;2024-01-15T01:48:09;0.50;;;0.50;;
595;SDS011;19946;49.306;11.350;2024-01-15T01:51:09;0.90;;;0.90;;
595;SDS011;19946;49.306;11.350;2024-01-15T01:54:10;0.60;;;0.60;;
595;SDS011;19946;49.306;11.350;2024-01-15T01:57:13;0.60;;;0.60;;
595;SDS011;19946;49.306;11.350;2024-01-15T02:00:15;0.70;;;0.70;;
595;SDS011;19946;49.306;11.350;2024-01-15T02:03:16;0.70;;;0.70;;
595;SDS011;19946;49.306;11.350;2024-01-15T02:06:17;0.90;;;0.90;;
595;SDS011;19946;49.306;11.350;2024-01-15T02:09:18;0.83;;;0.83;;
595;SDS011;19946;49.306;11.350;2024-01-15T02:12:18;0.70;;;0.70;;
595;SDS011;19946;49.306;11.350;2024-01-15T02:15:19;0.70;;;0.70;;
595;SDS011;19946;49.306;11.350;2024-01-15T02:18:19;0.60;;;0.60;;
595;SDS011;19946;49.306;11.350;2024-01-15T02:21:20;0.70;;;0.70;;
595;SDS011;19946;49.306;11.350;2024-01-15T02:24:20;0.60;;;0.60;;
595;SDS011;19946;49.306;11.350;2024-01-15T02:27:21;0.60;;;0.60;;
595;SDS011;19946;49.306;11.350;2024-01-15T02:30:21;0.60;;;0.60;;
595;SDS011;19946;49.306;11.350;2024-01-15T02:33:23;0.80;;;0.80;;
595;SDS011;19946;49.306;11.350;2024-01-15T02:36:23;0.90;;;0.90;;
595;SDS011;19946;49.306;11.350;2024-01-15T02:39:24;0.70;;;0.70;;
595;SDS011;19946;49.306;11.350;2024-01-15T02:42:25;0.73;;;0.73;;
595;SDS011;19946;49.306;11.350;2024-01-15T02:45:26;0.83;;;0.83;;
595;SDS011;19946;49.306;11.350;2024-01-15T02:48:27;0.70;;;0.70;;
595;SDS011;19946;49.306;11.350;2024-01-15T02:51:27;0.90;;;0.90;;
595;SDS011;19946;49.306;11.350;2024-01-15T02:54:27;0.77;;;0.77;;
595;SDS011;19946;49.306;11.350;2024-01-15T02:57:28;0.70;;;0.70;;
595;SDS011;19946;49.306;11.350;2024-01-15T03:00:28;0.60;;;0.60;;
595;SDS011;19946;49.306;11.350;2024-01-15T03:03:28;0.70;;;0.70;;
595;SDS011;19946;49.306;11.350;2024-01-15T03:06:29;0.80;;;0.80;;
595;SDS011;19946;49.306;11.350;2024-01-15T03:09:29;0.60;;;0.60;;
595;SDS011;19946;49.306;11.350;2024-01-15T03:12:29;0.60;;;0.60;;
595;SDS011;19946;49.306;11.350;2024-01-15T03:15:29;0.50;;;0.50;;
595;SDS011;19946;49.306;11.350;2024-01-15T03:18:30;0.70;;;0.70;;
595;SDS011;19946;49.306;11.350;2024-01-15T03:21:30;0.80;;;0.80;;
595;SDS011;19946;49.306;11.350;2024-01-15T03:24:31;0.70;;;0.70;;
595;SDS011;19946;49.306;11.350;2024-01-15T03:27:32;0.60;;;0.60;;
595;SDS011;19946;49.306;11.350;2024-01-15T03:30:32;0.80;;;0.80;;
595;SDS011;19946;49.306;11.350;2024-01-15T03:33:32;0.60;;;0.60;;
595;SDS011;19946;49.306;11.350;2024-01-15T03:36:33;0.30;;;0.30;;
595;SDS011;19946;49.306;11.350;2024-01-15T03:39:33;0.60;;;0.60;;
595;SDS011;19946;49.306;11.350;2024-01-15T03:42:33;0.30;;;0.30;;
595;SDS011;19946;49.306;11.350;2024-01-15T03:45:34;0.47;;;0.47;;
595;SDS011;19946;49.306;11.350;2024-01-15T03:48:34;0.40;;;0.40;;
595;SDS011;19946;49.306;11.350;2024-01-15T03:51:34;0.40;;;0.40;;
595;SDS011;19946;49.306;11.350;2024-01-15T03:54:35;0.40;;;0.40;;
595;SDS011;19946;49.306;11.350;2024-01-15T03:57:35;0.20;;;0.20;;
595;SDS011;19946;49.306;11.350;2024-01-15T04:00:35;0.50;;;0.50;;
595;SDS011;19946;49.306;11.350;2024-01-15T04:03:36;0.30;;;0.30;;
595;SDS011;19946;49.306;11.350;2024-01-15T04:06:36;0.50;;;0.50;;
595;SDS011;19946;49.306;11.350;2024-01-15T04:09:37;0.40;;;0.40;;
595;SDS011;19946;49.306;11.350;2024-01-15T04:12:38;0.60;;;0.60;;
595;SDS011;19946;49.306;11.350;2024-01-15T04:15:38;0.50;;;0.50;;
595;SDS011;19946;49.306;11.350;2024-01-15T04:18:38;0.40;;;0.40;;
595;SDS011;19946;49.306;11.350;2024-01-15T04:21:38;0.50;;;0.50;;
595;SDS011;19946;49.306;11.350;2024-01-15T04:24:39;0.40;;;0.40;;
595;SDS011;19946;49.306;11.350;2024-01-15T04:27:39;0.43;;;0.43;;
595;SDS011;19946;49.306;11.350;2024-01-15T04:30:39;0.60;;;0.60;;
595;SDS011;19946;49.306;11.350;2024-01-15T04:33:40;0.50;;;0.50;;
595;SDS011;19946;49.306;11.350;2024-01-15T04:36:40;0.60;;;0.60;;
595;SDS011;19946;49.306;11.350;2024-01-15T04:39:41;0.50;;;0.50;;
595;SDS011;19946;49.306;11.350;2024-01-15T04:42:41;0.70;;;0.70;;
595;SDS011;19946;49.306;11.350;2024-01-15T04:45:42;0.50;;;0.50;;
595;SDS011;19946;49.306;11.350;2024-01-15T04:48:42;0.60;;;0.60;;
595;SDS011;19946;49.306;11.350;2024-01-15T04:51:42;0.70;;;0.70;;
595;SDS011;19946;49.306;11.350;2024-01-15T04:54:42;0.50;;;0.50;;
595;SDS011;19946;49.306;11.350;2024-01-15T04:57:43;0.63;;;0.63;;
595;SDS011;19946;49.306;11.350;2024-01-15T05:00:44;0.60;;;0.60;;
595;SDS011;19946;49.306;11.350;2024-01-15T05:03:44;0.57;;;0.57;;
595;SDS011;19946;49.306;11.350;2024-01-15T05:06:44;0.57;;;0.57;;
595;SDS011;19946;49.306;11.350;2024-01-15T05:09:45;0.70;;;0.70;;
595;SDS011;19946;49.306;11.350;2024-01-15T05:12:45;0.80;;;0.80;;
595;SDS011;19946;49.306;11.350;2024-01-15T05:15:45;0.83;;;0.83;;
595;SDS011;19946;49.306;11.350;2024-01-15T05:18:45;0.50;;;0.50;;
595;SDS011;19946;49.306;11.350;2024-01-15T05:21:46;0.60;;;0.60;;
595;SDS011;19946;49.306;11.350;2024-01-15T05:24:46;0.60;;;0.60;;
595;SDS011;19946;49.306;11.350;2024-01-15T05:27:46;0.70;;;0.70;;
595;SDS011;19946;49.306;11.350;2024-01-15T05:30:47;0.80;;;0.80;;
595;SDS011;19946;49.306;11.350;2024-01-15T05:33:47;0.60;;;0.60;;
595;SDS011;19946;49.306;11.350;2024-01-15T05:36:48;0.80;;;0.80;;
595;SDS011;19946;49.306;11.350;2024-01-15T05:39:48;0.77;;;0.77;;
595;SDS011;19946;49.306;11.350;2024-01-15T05:42:48;0.70;;;0.70;;
595;SDS011;19946;49.306;11.350;2024-01-15T05:45:49;1.10;;;1.10;;
595;SDS011;19946;49.306;11.350;2024-01-15T05:48:49;0.70;;;0.70;;
595;SDS011;19946;49.306;11.350;2024-01-15T05:51:49;0.60;;;0.60;;
595;SDS011;19946;49.306;11.350;2024-01-15T05:54:51;0.70;;;0.70;;
595;SDS011;19946;49.306;11.350;2024-01-15T05:57:51;0.70;;;0.70;;
595;SDS011;19946;49.306;11.350;2024-01-15T06:00:51;0.60;;;0.60;;
595;SDS011;19946;49.306;11.350;2024-01-15T06:03:52;0.60;;;0.60;;
595;SDS011;19946;49.306;11.350;2024-01-15T06:06:52;0.70;;;0.70;;
595;SDS011;19946;49.306;11.350;2024-01-15T06:09:53;0.70;;;0.70;;
595;SDS011;19946;49.306;11.350;2024-01-15T06:12:53;0.60;;;0.60;;
595;SDS011;19946;49.306;11.350;2024-01-15T06:15:53;0.90;;;0.90;;
595;SDS011;19946;49.306;11.350;2024-01-15T06:18:54;0.80;;;0.80;;
595;SDS011;19946;49.306;11.350;2024-01-15T06:21:54;0.90;;;0.90;;
595;SDS011;19946;49.306;11.350;2024-01-15T06:24:54;0.70;;;0.70;;
595;SDS011;19946;49.306;11.350;2024-01-15T06:27:55;0.80;;;0.80;;
595;SDS011;19946;49.306;11.350;2024-01-15T06:30:56;0.90;;;0.90;;
595;SDS011;19946;49.306;11.350;2024-01-15T06:33:57;0.70;;;0.70;;
595;SDS011;19946;49.306;11.350;2024-01-15T06:36:58;0.80;;;0.80;;
595;SDS011;19946;49.306;11.350;2024-01-15T06:39:58;0.80;;;0.80;;
595;SDS011;19946;49.306;11.350;2024-01-15T06:42:58;0.93;;;0.93;;
595;SDS011;19946;49.306;11.350;2024-01-15T06:45:59;0.80;;;0.80;;
595;SDS011;19946;49.306;11.350;2024-01-15T06:48:59;0.80;;;0.80;;
595;SDS011;19946;49.306;11.350;2024-01-15T06:51:59;0.60;;;0.60;;
595;SDS011;19946;49.306;11.350;2024-01-15T06:54:59;0.70;;;0.70;;
595;SDS011;19946;49.306;11.350;2024-01-15T06:58:00;0.77;;;0.77;;
595;SDS011;19946;49.306;11.350;2024-01-15T07:01:00;0.60;;;0.60;;
595;SDS011;19946;49.306;11.350;2024-01-15T07:04:04;0.70;;;0.70;;
595;SDS011;19946;49.306;11.350;2024-01-15T07:07:04;0.90;;;0.90;;
595;SDS011;19946;49.306;11.350;2024-01-15T07:10:05;0.80;;;0.80;;
595;SDS011;19946;49.306;11.350;2024-01-15T07:13:06;0.70;;;0.70;;
595;SDS011;19946;49.306;11.350;2024-01-15T07:16:06;0.70;;;0.70;;
595;SDS011;19946;49.306;11.350;2024-01-15T07:19:07;0.90;;;0.90;;
595;SDS011;19946;49.306;11.350;2024-01-15T07:22:08;0.90;;;0.90;;
595;SDS011;19946;49.306;11.350;2024-01-15T07:25:08;0.90;;;0.90;;
595;SDS011;19946;49.306;11.350;2024-01-15T07:28:08;0.70;;;0.70;;
595;SDS011;19946;49.306;11.350;2024-01-15T07:31:09;0.63;;;0.63;;
595;SDS011;19946;49.306;11.350;2024-01-15T07:34:09;0.60;;;0.60;;
595;SDS011;19946;49.306;11.350;2024-01-15T07:37:10;0.50;;;0.50;;
595;SDS011;19946;49.306;11.350;2024-01-15T07:40:11;0.50;;;0.50;;
595;SDS011;19946;49.306;11.350;2024-01-15T07:43:12;0.70;;;0.70;;
595;SDS011;19946;49.306;11.350;2024-01-15T07:46:12;0.50;;;0.50;;
595;SDS011;19946;49.306;11.350;2024-01-15T07:49:13;0.30;;;0.30;;
595;SDS011;19946;49.306;11.350;2024-01-15T07:52:13;0.50;;;0.50;;
595;SDS011;19946;49.306;11.350;2024-01-15T07:55:14;0.10;;;0.10;;
595;SDS011;19946;49.306;11.350;2024-01-15T07:58:15;0.40;;;0.40;;
595;SDS011;19946;49.306;11.350;2024-01-15T08:01:15;0.30;;;0.30;;
595;SDS011;19946;49.306;11.350;2024-01-15T08:04:16;0.40;;;0.40;;
595;SDS011;19946;49.306;11.350;2024-01-15T08:07:16;0.50;;;0.50;;
595;SDS011;19946;49.306;11.350;2024-01-15T08:10:17;0.40;;;0.40;;
595;SDS011;19946;49.306;11.350;2024-01-15T08:13:18;0.50;;;0.50;;
595;SDS011;19946;49.306;11.350;2024-01-15T08:16:18;0.43;;;0.43;;
595;SDS011;19946;49.306;11.350;2024-01-15T08:19:19;0.50;;;0.50;;
595;SDS011;19946;49.306;11.350;2024-01-15T08:22:22;0.50;;;0.50;;
595;SDS011;19946;49.306;11.350;2024-01-15T08:25:23;0.50;;;0.50;;
595;SDS011;19946;49.306;11.350;2024-01-15T08:28:24;0.40;;;0.40;;
595;SDS011;19946;49.306;11.350;2024-01-15T08:31:24;0.37;;;0.37;;
595;SDS011;19946;49.306;11.350;2024-01-15T08:34:24;0.33;;;0.33;;
595;SDS011;19946;49.306;11.350;2024-01-15T08:37:25;0.40;;;0.40;;
595;SDS011;19946;49.306;11.350;2024-01-15T08:40:25;0.37;;;0.37;;
595;SDS011;19946;49.306;11.350;2024-01-15T08:43:26;0.37;;;0.37;;
595;SDS011;19946;49.306;11.350;2024-01-15T08:46:27;0.50;;;0.50;;
595;SDS011;19946;49.306;11.350;2024-01-15T08:49:27;0.50;;;0.50;;
595;SDS011;19946;49.306;11.350;2024-01-15T08:52:27;0.50;;;0.50;;
595;SDS011;19946;49.306;11.350;2024-01-15T08:55:27;0.40;;;0.40;;
595;SDS011;19946;49.306;11.350;2024-01-15T08:58:28;0.33;;;0.33;;
595;SDS011;19946;49.306;11.350;2024-01-15T09:01:28;0.40;;;0.40;;
595;SDS011;19946;49.306;11.350;2024-01-15T09:04:29;0.50;;;0.50;;
595;SDS011;19946;49.306;11.350;2024-01-15T09:07:29;0.47;;;0.47;;
595;SDS011;19946;49.306;11.350;2024-01-15T09:10:30;0.57;;;0.57;;
595;SDS011;19946;49.306;11.350;2024-01-15T09:13:30;0.40;;;0.40;;
595;SDS011;19946;49.306;11.350;2024-01-15T09:16:31;0.50;;;0.50;;
595;SDS011;19946;49.306;11.350;2024-01-15T09:19:31;0.50;;;0.50;;
595;SDS011;19946;49.306;11.350;2024-01-15T09:22:31;0.73;;;0.73;;
595;SDS011;19946;49.306;11.350;2024-01-15T09:25:32;1.07;;;1.07;;
595;SDS011;19946;49.306;11.350;2024-01-15T09:28:32;0.60;;;0.60;;
595;SDS011;19946;49.306;11.350;2024-01-15T09:31:32;0.50;;;0.50;;
595;SDS011;19946;49.306;11.350;2024-01-15T09:34:33;0.70;;;0.70;;
595;SDS011;19946;49.306;11.350;2024-01-15T09:37:34;0.80;;;0.80;;
595;SDS011;19946;49.306;11.350;2024-01-15T09:40:34;0.50;;;0.50;;
595;SDS011;19946;49.306;11.350;2024-01-15T09:43:38;0.50;;;0.50;;
595;SDS011;19946;49.306;11.350;2024-01-15T09:46:39;0.60;;;0.60;;
595;SDS011;19946;49.306;11.350;2024-01-15T09:49:41;0.70;;;0.70;;
595;SDS011;19946;49.306;11.350;2024-01-15T09:52:42;0.87;;;0.87;;
595;SDS011;19946;49.306;11.350;2024-01-15T09:55:44;0.80;;;0.80;;
595;SDS011;19946;49.306;11.350;2024-01-15T09:58:45;0.90;;;0.90;;
595;SDS011;19946;49.306;11.350;2024-01-15T10:01:46;0.67;;;0.67;;
595;SDS011;19946;49.306;11.350;2024-01-15T10:04:48;0.80;;;0.80;;
595;SDS011;19946;49.306;11.350;2024-01-15T10:07:48;0.90;;;0.90;;
595;SDS011;19946;49.306;11.350;2024-01-15T10:10:50;1.10;;;1.10;;
595;SDS011;19946;49.306;11.350;2024-01-15T10:13:50;1.00;;;1.00;;
595;SDS011;19946;49.306;11.350;2024-01-15T10:16:53;0.90;;;0.90;;
595;SDS011;19946;49.306;11.350;2024-01-15T10:19:53;1.10;;;1.10;;
595;SDS011;19946;49.306;11.350;2024-01-15T10:22:53;1.03;;;1.03;;
595;SDS011;19946;49.306;11.350;2024-01-15T10:25:56;1.30;;;1.30;;
595;SDS011;19946;49.306;11.350;2024-01-15T10:29:00;1.30;;;1.30;;
595;SDS011;19946;49.306;11.350;2024-01-15T10:32:01;1.20;;;1.20;;
595;SDS011;19946;49.306;11.350;2024-01-15T10:35:01;1.20;;;1.20;;
595;SDS011;19946;49.306;11.350;2024-01-15T10:38:02;1.33;;;1.33;;
595;SDS011;19946;49.306;11.350;2024-01-15T10:41:03;1.20;;;1.20;;
595;SDS011;19946;49.306;11.350;2024-01-15T10:44:04;0.90;;;0.90;;
595;SDS011;19946;49.306;11.350;2024-01-15T10:47:04;0.70;;;0.70;;
595;SDS011;19946;49.306;11.350;2024-01-15T10:50:05;0.63;;;0.63;;
595;SDS011;19946;49.306;11.350;2024-01-15T10:53:08;0.80;;;0.80;;
595;SDS011;19946;49.306;11.350;2024-01-15T10:56:09;0.70;;;0.70;;
595;SDS011;19946;49.306;11.350;2024-01-15T10:59:10;0.70;;;0.70;;
595;SDS011;19946;49.306;11.350;2024-01-15T11:02:12;0.80;;;0.80;;
595;SDS011;19946;49.306;11.350;2024-01-15T11:05:15;0.70;;;0.70;;
595;SDS011;19946;49.306;11.350;2024-01-15T11:08:17;0.80;;;0.80;;
595;SDS011;19946;49.306;11.350;2024-01-15T11:11:19;0.80;;;0.80;;
595;SDS011;19946;49.306;11.350;2024-01-15T11:14:33;1.00;;;1.00;;
595;SDS011;19946;49.306;11.350;2024-01-15T11:17:57;0.97;;;0.97;;
595;SDS011;19946;49.306;11.350;2024-01-15T11:21:19;1.00;;;1.00;;
595;SDS011;19946;49.306;11.350;2024-01-15T11:24:33;0.77;;;0.77;;
595;SDS011;19946;49.306;11.350;2024-01-15T11:27:39;0.60;;;0.60;;
595;SDS011;19946;49.306;11.350;2024-01-15T11:30:53;0.43;;;0.43;;
595;SDS011;19946;49.306;11.350;2024-01-15T11:33:53;0.60;;;0.60;;
595;SDS011;19946;49.306;11.350;2024-01-15T11:39:56;0.30;;;0.30;;
595;SDS011;19946;49.306;11.350;2024-01-15T11:43:02;0.80;;;0.80;;
595;SDS011;19946;49.306;11.350;2024-01-15T11:46:02;0.70;;;0.70;;
595;SDS011;19946;49.306;11.350;2024-01-15T11:49:04;0.70;;;0.70;;
595;SDS011;19946;49.306;11.350;2024-01-15T11:52:05;0.60;;;0.60;;
595;SDS011;19946;49.306;11.350;2024-01-15T11:55:10;0.60;;;0.60;;
595;SDS011;19946;49.306;11.350;2024-01-15T11:58:12;0.40;;;0.40;;
595;SDS011;19946;49.306;11.350;2024-01-15T12:01:13;0.30;;;0.30;;
595;SDS011;19946;49.306;11.350;2024-01-15T12:04:13;0.33;;;0.33;;
595;SDS011;19946;49.306;11.350;2024-01-15T12:07:15;0.30;;;0.30;;
595;SDS011;19946;49.306;11.350;2024-01-15T12:10:17;0.50;;;0.50;;
595;SDS011;19946;49.306;11.350;2024-01-15T12:13:24;0.20;;;0.20;;
595;SDS011;19946;49.306;11.350;2024-01-15T12:16:24;0.30;;;0.30;;
595;SDS011;19946;49.306;11.350;2024-01-15T12:19:25;0.30;;;0.30;;
595;SDS011;19946;49.306;11.350;2024-01-15T12:22:25;0.30;;;0.30;;
595;SDS011;19946;49.306;11.350;2024-01-15T12:25:27;0.40;;;0.40;;
595;SDS011;19946;49.306;11.350;2024-01-15T12:28:29;0.30;;;0.30;;
595;SDS011;19946;49.306;11.350;2024-01-15T12:31:30;0.00;;;0.00;;
595;SDS011;19946;49.306;11.350;2024-01-15T12:34:30;0.00;;;0.00;;
595;SDS011;19946;49.306;11.350;2024-01-15T12:37:32;0.00;;;0.00;;
595;SDS011;19946;49.306;11.350;2024-01-15T12:40:32;0.00;;;0.00;;
595;SDS011;19946;49.306;11.350;2024-01-15T12:43:36;0.00;;;0.00;;
595;SDS011;19946;49.306;11.350;2024-01-15T12:46:36;0.00;;;0.00;;
595;SDS011;19946;49.306;11.350;2024-01-15T12:49:37;0.00;;;0.00;;
595;SDS011;19946;49.306;11.350;2024-01-15T12:52:39;0.00;;;0.00;;
595;SDS011;19946;49.306;11.350;2024-01-15T12:55:40;0.00;;;0.00;;
595;SDS011;19946;49.306;11.350;2024-01-15T12:58:41;0.00;;;0.00;;
595;SDS011;19946;49.306;11.350;2024-01-15T13:01:41;0.00;;;0.00;;
595;SDS011;19946;49.306;11.350;2024-01-15T13:04:42;0.00;;;0.00;;
595;SDS011;19946;49.306;11.350;2024-01-15T13:07:43;0.00;;;0.00;;
595;SDS011;19946;49.306;11.350;2024-01-15T13:10:43;0.00;;;0.00;;
595;SDS011;19946;49.306;11.350;2024-01-15T13:13:44;0.00;;;0.00;;
595;SDS011;19946;49.306;11.350;2024-01-15T13:16:44;0.00;;;0.00;;
595;SDS011;19946;49.306;11.350;2024-01-15T13:19:44;0.00;;;0.00;;
595;SDS011;19946;49.306;11.350;2024-01-15T13:22:45;0.10;;;0.10;;
595;SDS011;19946;49.306;11.350;2024-01-15T13:25:46;0.00;;;0.00;;
595;SDS011;19946;49.306;11.350;2024-01-15T13:28:46;0.10;;;0.10;;
595;SDS011;19946;49.306;11.350;2024-01-15T13:31:46;0.10;;;0.10;;
595;SDS011;19946;49.306;11.350;2024-01-15T13:34:47;0.10;;;0.10;;
595;SDS011;19946;49.306;11.350;2024-01-15T13:37:47;0.00;;;0.00;;
595;SDS011;19946;49.306;11.350;2024-01-15T13:40:47;0.00;;;0.00;;
595;SDS011;19946;49.306;11.350;2024-01-15T13:43:49;0.10;;;0.10;;
595;SDS011;19946;49.306;11.350;2024-01-15T13:46:50;0.10;;;0.10;;
595;SDS011;19946;49.306;11.350;2024-01-15T13:49:50;0.00;;;0.00;;
595;SDS011;19946;49.306;11.350;2024-01-15T13:52:50;0.10;;;0.10;;
595;SDS011;19946;49.306;11.350;2024-01-15T13:55:51;0.10;;;0.10;;
595;SDS011;19946;49.306;11.350;2024-01-15T13:58:51;0.10;;;0.10;;
595;SDS011;19946;49.306;11.350;2024-01-15T14:01:52;0.10;;;0.10;;
595;SDS011;19946;49.306;11.350;2024-01-15T14:04:52;0.10;;;0.10;;
595;SDS011;19946;49.306;11.350;2024-01-15T14:07:52;0.10;;;0.10;;
595;SDS011;19946;49.306;11.350;2024-01-15T14:10:52;0.00;;;0.00;;
595;SDS011;19946;49.306;11.350;2024-01-15T14:13:54;0.00;;;0.00;;
595;SDS011;19946;49.306;11.350;2024-01-15T14:16:54;0.00;;;0.00;;
595;SDS011;19946;49.306;11.350;2024-01-15T14:19:54;0.10;;;0.10;;
595;SDS011;19946;49.306;11.350;2024-01-15T14:22:55;0.00;;;0.00;;
595;SDS011;19946;49.306;11.350;2024-01-15T14:25:56;0.00;;;0.00;;
595;SDS011;19946;49.306;11.350;2024-01-15T14:28:56;0.00;;;0.00;;
595;SDS011;19946;49.306;11.350;2024-01-15T14:31:56;0.00;;;0.00;;
595;SDS011;19946;49.306;11.350;2024-01-15T14:34:57;0.00;;;0.00;;
595;SDS011;19946;49.306;11.350;2024-01-15T14:37:57;0.00;;;0.00;;
595;SDS011;19946;49.306;11.350;2024-01-15T14:40:58;0.00;;;0.00;;
595;SDS011;19946;49.306;11.350;2024-01-15T14:43:58;0.10;;;0.10;;
595;SDS011;19946;49.306;11.350;2024-01-15T14:46:59;0.10;;;0.10;;
595;SDS011;19946;49.306;11.350;2024-01-15T14:49:59;0.10;;;0.10;;
595;SDS011;19946;49.306;11.350;2024-01-15T14:52:59;0.10;;;0.10;;
595;SDS011;19946;49.306;11.350;2024-01-15T14:56:00;0.10;;;0.10;;
595;SDS011;19946;49.306;11.350;2024-01-15T14:59:02;0.10;;;0.10;;
595;SDS011;19946;49.306;11.350;2024-01-15T15:02:02;0.10;;;0.10;;
595;SDS011;19946;49.306;11.350;2024-01-15T15:05:03;0.10;;;0.10;;
595;SDS011;19946;49.306;11.350;2024-01-15T15:08:04;0.20;;;0.20;;
595;SDS011;19946;49.306;11.350;2024-01-15T15:11:08;0.20;;;0.20;;
595;SDS011;19946;49.306;11.350;2024-01-15T15:14:09;0.20;;;0.20;;
595;SDS011;19946;49.306;11.350;2024-01-15T15:17:09;0.10;;;0.10;;
595;SDS011;19946;49.306;11.350;2024-01-15T15:20:09;0.40;;;0.40;;
595;SDS011;19946;49.306;11.350;2024-01-15T15:23:10;0.20;;;0.20;;
595;SDS011;19946;49.306;11.350;2024-01-15T15:26:11;0.10;;;0.10;;
595;SDS011;19946;49.306;11.350;2024-01-15T15:29:11;0.10;;;0.10;;
595;SDS011;19946;49.306;11.350;2024-01-15T15:32:11;0.20;;;0.20;;
595;SDS011;19946;49.306;11.350;2024-01-15T15:35:12;0.10;;;0.10;;
595;SDS011;19946;49.306;11.350;2024-01-15T15:38:13;0.10;;;0.10;;
595;SDS011;19946;49.306;11.350;2024-01-15T15:41:13;0.10;;;0.10;;
595;SDS011;19946;49.306;11.350;2024-01-15T15:44:14;0.10;;;0.10;;
595;SDS011;19946;49.306;11.350;2024-01-15T15:47:16;0.10;;;0.10;;
595;SDS011;19946;49.306;11.350;2024-01-15T15:50:17;0.10;;;0.10;;
595;SDS011;19946;49.306;11.350;2024-01-15T15:53:18;0.10;;;0.10;;
595;SDS011;19946;49.306;11.350;2024-01-15T15:56:20;0.17;;;0.17;;
595;SDS011;19946;49.306;11.350;2024-01-15T15:59:20;0.20;;;0.20;;
595;SDS011;19946;49.306;11.350;2024-01-15T16:02:21;0.10;;;0.10;;
595;SDS011;19946;49.306;11.350;2024-01-15T16:05:21;0.10;;;0.10;;
595;SDS011;19946;49.306;11.350;2024-01-15T16:08:22;0.10;;;0.10;;
595;SDS011;19946;49.306;11.350;2024-01-15T16:11:22;0.20;;;0.20;;
595;SDS011;19946;49.306;11.350;2024-01-15T16:14:23;0.20;;;0.20;;
595;SDS011;19946;49.306;11.350;2024-01-15T16:17:23;0.10;;;0.10;;
595;SDS011;19946;49.306;11.350;2024-01-15T16:20:23;0.20;;;0.20;;
595;SDS011;19946;49.306;11.350;2024-01-15T16:23:24;0.10;;;0.10;;
595;SDS011;19946;49.306;11.350;2024-01-15T16:26:24;0.20;;;0.20;;
595;SDS011;19946;49.306;11.350;2024-01-15T16:29:24;0.17;;;0.17;;
595;SDS011;19946;49.306;11.350;2024-01-15T16:32:25;0.10;;;0.10;;
595;SDS011;19946;49.306;11.350;2024-01-15T16:35:25;0.10;;;0.10;;
595;SDS011;19946;49.306;11.350;2024-01-15T16:38:25;0.20;;;0.20;;
595;SDS011;19946;49.306;11.350;2024-01-15T16:41:26;0.10;;;0.10;;
595;SDS011;19946;49.306;11.350;2024-01-15T16:44:26;0.30;;;0.30;;
595;SDS011;19946;49.306;11.350;2024-01-15T16:47:26;0.30;;;0.30;;
595;SDS011;19946;49.306;11.350;2024-01-15T16:50:27;0.20;;;0.20;;
595;SDS011;19946;49.306;11.350;2024-01-15T16:53:27;0.10;;;0.10;;
595;SDS011;19946;49.306;11.350;2024-01-15T16:56:28;0.10;;;0.10;;
595;SDS011;19946;49.306;11.350;2024-01-15T16:59:28;0.10;;;0.10;;
595;SDS011;19946;49.306;11.350;2024-01-15T17:02:30;0.20;;;0.20;;
595;SDS011;19946;49.306;11.350;2024-01-15T17:05:30;0.30;;;0.30;;
595;SDS011;19946;49.306;11.350;2024-01-15T17:08:30;0.20;;;0.20;;
595;SDS011;19946;49.306;11.350;2024-01-15T17:11:31;0.37;;;0.37;;
595;SDS011;19946;49.306;11.350;2024-01-15T17:14:32;0.20;;;0.20;;
595;SDS011;19946;49.306;11.350;2024-01-15T17:17:32;0.20;;;0.20;;
595;SDS011;19946;49.306;11.350;2024-01-15T17:20:32;0.20;;;0.20;;
595;SDS011;19946;49.306;11.350;2024-01-15T17:23:33;0.30;;;0.30;;
595;SDS011;19946;49.306;11.350;2024-01-15T17:26:33;0.30;;;0.30;;
595;SDS011;19946;49.306;11.350;2024-01-15T17:29:33;0.30;;;0.30;;
595;SDS011;19946;49.306;11.350;2024-01-15T17:32:34;0.40;;;0.40;;
595;SDS011;19946;49.306;11.350;2024-01-15T17:35:34;0.30;;;0.30;;
595;SDS011;19946;49.306;11.350;2024-01-15T17:38:35;0.30;;;0.30;;
595;SDS011;19946;49.306;11.350;2024-01-15T17:41:35;0.20;;;0.20;;
595;SDS011;19946;49.306;11.350;2024-01-15T17:44:36;0.30;;;0.30;;
595;SDS011;19946;49.306;11.350;2024-01-15T17:47:36;0.30;;;0.30;;
595;SDS011;19946;49.306;11.350;2024-01-15T17:50:37;0.20;;;0.20;;
595;SDS011;19946;49.306;11.350;2024-01-15T17:53:39;0.30;;;0.30;;
595;SDS011;19946;49.306;11.350;2024-01-15T17:56:39;0.40;;;0.40;;
595;SDS011;19946;49.306;11.350;2024-01-15T17:59:39;0.33;;;0.33;;
595;SDS011;19946;49.306;11.350;2024-01-15T18:02:40;0.30;;;0.30;;
595;SDS011;19946;49.306;11.350;2024-01-15T18:05:40;0.30;;;0.30;;
595;SDS011;19946;49.306;11.350;2024-01-15T18:08:40;0.30;;;0.30;;
595;SDS011;19946;49.306;11.350;2024-01-15T18:11:41;0.40;;;0.40;;
595;SDS011;19946;49.306;11.350;2024-01-15T18:14:41;0.20;;;0.20;;
595;SDS011;19946;49.306;11.350;2024-01-15T18:17:42;0.30;;;0.30;;
595;SDS011;19946;49.306;11.350;2024-01-15T18:20:42;0.30;;;0.30;;
595;SDS011;19946;49.306;11.350;2024-01-15T18:23:43;0.40;;;0.40;;
595;SDS011;19946;49.306;11.350;2024-01-15T18:26:43;0.40;;;0.40;;
595;SDS011;19946;49.306;11.350;2024-01-15T18:29:43;0.30;;;0.30;;